Great Pumpkin Run 5K                              
                                  Overall Male                                  
                                 October 7, 2017                                

For result questions, please send an e-mail to Mike at raceresults@pprrun.org

For other questions about the race, please contact the race director at bkates@springgov.com
Course: A mix of gravel roads and trails on Venetucci Farm and Pinello Ranch.

OPlc GPlc AGPlc AGrp   Bib  Name                 Age Sex City             St Gun     Chip    Pace    USABA 
   1    1     1 M30-39 3373 Adam Rich             36  M  Colorado Springs CO 0:16:37 0:16:36 0:05:21       
   2    2     1 M40-49 3333 Jon Teisher           42  M  Colorado Springs CO 0:22:32 0:22:32 0:07:16       
   3    3     2 M30-39 3065 Joel Dagnillo         35  M  Cheyene          WY 0:22:44 0:22:43 0:07:20       
   4    4     2 M40-49 3384 Lon Thurman           48  M  Colorado Springs CO 0:23:10 0:23:09 0:07:28       
   5    5     3 M40-49 3314 John Sarkisian        41  M  Peyton           CO 0:23:20 0:23:19 0:07:31       
   6    6     1 M50-59 3376 Barry Schneiderman    51  M  Colorado Springs CO 0:23:25 0:23:23 0:07:33       
   7    7     2 M50-59 3375 Michael Guenther      56  M  Monument         CO 0:23:48 0:23:46 0:07:40       
   8    8     1 M60-98 3329 John Sudduth          66  M  Colorado Springs CO 0:24:53 0:24:53 0:08:02       
  10    9     1 M01-19 3377 Tyler Peters          12  M  Colorado Springs CO 0:25:15 0:25:12 0:08:08       
  12   10     3 M50-59 3339 James West            54  M  Colo. Spgs.      CO 0:27:08 0:27:06 0:08:45       
  15   11     4 M40-49 3338 Matthew Wells         40  M  Colorado Springs CO 0:27:26 0:27:21 0:08:49       
  16   12     5 M40-49 3347 Bradley Bufkin        44  M  Colorado Springs CO 0:27:37 0:27:31 0:08:53       
  17   13     4 M50-59 3298 Scott Reese           53  M  Colorado Springs CO 0:27:41 0:27:35 0:08:54       
  18   14     5 M50-59 3245 Joe Livingston        54  M  Peyton           CO 0:28:28 0:28:19 0:09:08       
  20   15     3 M30-39 3144 Chris Dorry           36  M  Colorado Springs CO 0:28:33 0:28:29 0:09:11       
  22   16     6 M50-59 3014 Nevin Bass            58  M  Castle Rock      CO 0:28:56 0:28:46 0:09:17       
  23   17     6 M40-49 3068 Jason Daily           42  M  Colorado Springs CO 0:28:50 0:28:47 0:09:17       
  25   18     4 M30-39 3346 Jonathan Wright       32  M  Colorado Springs CO 0:29:00 0:29:00 0:09:21       
  26   19     5 M30-39 3140 Ron Dion              35  M  Colorado Springs CO 0:29:02 0:29:02 0:09:22       
  28   20     7 M40-49 3013 Michael Amend         49  M  Colorado Springs CO 0:29:22 0:29:17 0:09:27       

OPlc GPlc AGPlc AGrp   Bib  Name                 Age Sex City             St Gun     Chip    Pace    USABA 
  31   21     8 M40-49 3193 Tom Holton            48  M  Colorado Springs CO 0:29:57 0:29:55 0:09:39       
  32   22     6 M30-39 3019 Alex Baxter           30  M  Morrison         CO 0:30:31 0:30:24 0:09:48       
  35   23     2 M60-98 3028 Bruce Bowie           67  M  Colorado Springs CO 0:31:03 0:30:59 0:10:00       
  39   24     2 M01-19 3378 Ajay Peters            9  M  Colorado Springs CO 0:31:40 0:31:36 0:10:12       
  41   25     7 M30-39 3386 Tim Foster            31  M  Colorado Springs CO 0:32:57 0:32:34 0:10:30       
  46   26     9 M40-49 3046 Spencer Burgess       46  M  Castle Rock      CO 0:33:11 0:33:11 0:10:42       
  48   27     3 M01-19 3198 Jackson Hosey         14  M  Colorado Springs CO 0:33:36 0:33:23 0:10:46       
  50   28     7 M50-59 3354 John Rowe             51  M  Colorado Springs CO 0:33:40 0:33:37 0:10:51       
  51   29     8 M30-39 3341 Joseph Westrich       32  M  Firestone        CO 0:34:49 0:34:37 0:11:10       
  54   30    10 M40-49 3294 Chad Raymo            45  M  Colorado Springs CO 0:35:08 0:34:53 0:11:15       
  55   31     4 M01-19 3191 Jared Holton          16  M  Colorado Springs CO 0:35:10 0:35:07 0:11:20       
  59   32     8 M50-59 3322 Kent Smith            55  M  Woodland Park    CO 0:35:57 0:35:45 0:11:32       
  63   33     9 M50-59 3101 David Dalton          52  M  Peyton           CO 0:36:55 0:36:40 0:11:50       
  72   34     5 M01-19 3363 Aiden McBride         11  M  Colorado Springs CO 0:38:21 0:38:15 0:12:20       
  76   35    11 M40-49 3203 William Hosey         45  M  Colorado Springs CO 0:39:10 0:38:55 0:12:33       
  81   36     6 M01-19 3274 Gabriel Orona         15  M  Colorado Springs CO 0:39:35 0:39:17 0:12:40       
  88   37     1 M20-29 3362 Ty McVicker           27  M  Colorado Springs CO 0:40:35 0:40:24 0:13:02       
  93   38     7 M01-19 3257 Ryan Mulligan         15  M  Colorado Springs CO 0:42:17 0:42:06 0:13:35       
  95   39     3 M60-98 3352 Rick Gallegos         64  M  Colorado Springs CO 0:44:09 0:44:01 0:14:12       
  99   40     9 M30-39 3278 Bret Orsburn          34  M  Colorado Springs CO 0:45:56 0:45:42 0:14:45       

OPlc GPlc AGPlc AGrp   Bib  Name                 Age Sex City             St Gun     Chip    Pace    USABA 
 102   41    10 M30-39 3204 Joshua Hosler         37  M  Colorado Springs CO 0:46:04 0:45:57 0:14:49       
 115   42     2 M20-29 3369 Codi Vegors           27  M  Colorado Springs CO 0:55:49 0:55:32 0:17:55       
 117   43     4 M60-98 3374 Myron Gelsinger       70  M  Colorado Springs CO 1:01:03 1:00:49 0:19:37       
 118   44     5 M60-98 3358 Gary Gabrielson       77  M  Colorado Springs CO 1:01:29 1:01:09 0:19:44       
 119   45     6 M60-98 3366 Chuck Breske          67  M  Colorado Springs CO 1:09:36 1:09:17 0:22:21